sensor_id;sensor_type;location;lat;lon;timestamp;P1;durP1;ratioP1;P2;durP2;ratioP2
29764;SDS011;16667;-33.884;151.182;2022-08-21T00:00:39;9.80;;;2.37;;
29764;SDS011;16667;-33.884;151.182;2022-08-21T00:03:10;8.77;;;1.90;;
29764;SDS011;16667;-33.884;151.182;2022-08-21T00:05:42;9.75;;;1.70;;
29764;SDS011;16667;-33.884;151.182;2022-08-21T00:08:15;9.70;;;1.83;;
29764;SDS011;16667;-33.884;151.182;2022-08-21T00:10:49;9.90;;;1.97;;
29764;SDS011;16667;-33.884;151.182;2022-08-21T00:13:20;8.93;;;1.70;;
29764;SDS011;16667;-33.884;151.182;2022-08-21T00:15:51;12.48;;;1.98;;
29764;SDS011;16667;-33.884;151.182;2022-08-21T00:18:22;15.48;;;2.28;;
29764;SDS011;16667;-33.884;151.182;2022-08-21T00:20:52;11.90;;;2.40;;
29764;SDS011;16667;-33.884;151.182;2022-08-21T00:23:23;10.18;;;2.05;;
29764;SDS011;16667;-33.884;151.182;2022-08-21T00:25:56;8.57;;;1.45;;
29764;SDS011;16667;-33.884;151.182;2022-08-21T00:28:27;9.25;;;1.40;;
29764;SDS011;16667;-33.884;151.182;2022-08-21T00:30:58;8.40;;;1.65;;
29764;SDS011;16667;-33.884;151.182;2022-08-21T00:33:30;6.45;;;1.40;;
29764;SDS011;16667;-33.884;151.182;2022-08-21T00:36:01;8.48;;;1.50;;
29764;SDS011;16667;-33.884;151.182;2022-08-21T00:38:32;8.45;;;1.52;;
29764;SDS011;16667;-33.884;151.182;2022-08-21T00:41:06;8.25;;;1.45;;
29764;SDS011;16667;-33.884;151.182;2022-08-21T00:43:39;10.43;;;1.50;;
29764;SDS011;16667;-33.884;151.182;2022-08-21T00:46:10;8.65;;;1.42;;
29764;SDS011;16667;-33.884;151.182;2022-08-21T00:48:41;8.45;;;1.35;;
29764;SDS011;16667;-33.884;151.182;2022-08-21T00:51:12;6.97;;;1.30;;
29764;SDS011;16667;-33.884;151.182;2022-08-21T00:53:49;7.40;;;1.25;;
29764;SDS011;16667;-33.884;151.182;2022-08-21T00:56:25;3.63;;;0.85;;
29764;SDS011;16667;-33.884;151.182;2022-08-21T00:58:57;6.95;;;1.23;;
29764;SDS011;16667;-33.884;151.182;2022-08-21T01:01:30;5.03;;;1.83;;
29764;SDS011;16667;-33.884;151.182;2022-08-21T01:04:01;8.52;;;1.33;;
29764;SDS011;16667;-33.884;151.182;2022-08-21T01:06:32;4.75;;;1.00;;
29764;SDS011;16667;-33.884;151.182;2022-08-21T01:09:03;5.20;;;1.10;;
29764;SDS011;16667;-33.884;151.182;2022-08-21T01:11:35;7.53;;;1.45;;
29764;SDS011;16667;-33.884;151.182;2022-08-21T01:14:08;7.03;;;1.58;;
29764;SDS011;16667;-33.884;151.182;2022-08-21T01:16:41;4.88;;;1.20;;
29764;SDS011;16667;-33.884;151.182;2022-08-21T01:19:15;5.03;;;1.00;;
29764;SDS011;16667;-33.884;151.182;2022-08-21T01:21:49;3.88;;;1.08;;
29764;SDS011;16667;-33.884;151.182;2022-08-21T01:24:20;3.45;;;1.08;;
29764;SDS011;16667;-33.884;151.182;2022-08-21T01:26:51;5.72;;;1.17;;
29764;SDS011;16667;-33.884;151.182;2022-08-21T01:29:26;3.67;;;1.10;;
29764;SDS011;16667;-33.884;151.182;2022-08-21T01:32:04;5.45;;;1.00;;
29764;SDS011;16667;-33.884;151.182;2022-08-21T01:34:36;4.97;;;1.60;;
29764;SDS011;16667;-33.884;151.182;2022-08-21T01:37:10;3.72;;;0.80;;
29764;SDS011;16667;-33.884;151.182;2022-08-21T01:39:42;4.25;;;1.08;;
29764;SDS011;16667;-33.884;151.182;2022-08-21T01:42:14;3.63;;;1.02;;
29764;SDS011;16667;-33.884;151.182;2022-08-21T01:44:45;7.75;;;1.20;;
29764;SDS011;16667;-33.884;151.182;2022-08-21T01:47:17;5.75;;;1.20;;
29764;SDS011;16667;-33.884;151.182;2022-08-21T01:49:48;3.33;;;0.87;;
29764;SDS011;16667;-33.884;151.182;2022-08-21T01:52:20;5.22;;;1.30;;
29764;SDS011;16667;-33.884;151.182;2022-08-21T01:54:51;3.58;;;1.05;;
29764;SDS011;16667;-33.884;151.182;2022-08-21T01:57:22;5.97;;;1.13;;
29764;SDS011;16667;-33.884;151.182;2022-08-21T01:59:53;4.72;;;1.00;;
29764;SDS011;16667;-33.884;151.182;2022-08-21T02:02:24;4.18;;;0.90;;
29764;SDS011;16667;-33.884;151.182;2022-08-21T02:04:55;3.45;;;0.80;;
29764;SDS011;16667;-33.884;151.182;2022-08-21T02:07:34;6.13;;;1.15;;
29764;SDS011;16667;-33.884;151.182;2022-08-21T02:10:06;3.63;;;1.00;;
29764;SDS011;16667;-33.884;151.182;2022-08-21T02:12:39;4.57;;;0.85;;
29764;SDS011;16667;-33.884;151.182;2022-08-21T02:15:10;4.60;;;0.80;;
29764;SDS011;16667;-33.884;151.182;2022-08-21T02:17:41;4.32;;;0.85;;
29764;SDS011;16667;-33.884;151.182;2022-08-21T02:20:16;4.68;;;0.88;;
29764;SDS011;16667;-33.884;151.182;2022-08-21T02:22:50;6.18;;;1.20;;
29764;SDS011;16667;-33.884;151.182;2022-08-21T02:25:22;3.78;;;1.13;;
29764;SDS011;16667;-33.884;151.182;2022-08-21T02:27:54;5.18;;;1.30;;
29764;SDS011;16667;-33.884;151.182;2022-08-21T02:30:26;4.88;;;1.02;;
29764;SDS011;16667;-33.884;151.182;2022-08-21T02:32:59;3.13;;;1.00;;
29764;SDS011;16667;-33.884;151.182;2022-08-21T02:35:30;5.27;;;0.93;;
29764;SDS011;16667;-33.884;151.182;2022-08-21T02:38:04;2.92;;;0.80;;
29764;SDS011;16667;-33.884;151.182;2022-08-21T02:40:37;3.15;;;0.90;;
29764;SDS011;16667;-33.884;151.182;2022-08-21T02:43:09;3.67;;;1.00;;
29764;SDS011;16667;-33.884;151.182;2022-08-21T02:45:42;2.65;;;0.90;;
29764;SDS011;16667;-33.884;151.182;2022-08-21T02:48:14;4.63;;;0.90;;
29764;SDS011;16667;-33.884;151.182;2022-08-21T02:50:48;5.38;;;1.17;;
29764;SDS011;16667;-33.884;151.182;2022-08-21T02:53:23;2.70;;;0.70;;
29764;SDS011;16667;-33.884;151.182;2022-08-21T02:55:56;2.92;;;0.75;;
29764;SDS011;16667;-33.884;151.182;2022-08-21T02:58:29;3.90;;;0.90;;
29764;SDS011;16667;-33.884;151.182;2022-08-21T03:01:04;3.15;;;0.82;;
29764;SDS011;16667;-33.884;151.182;2022-08-21T03:03:36;3.87;;;1.00;;
29764;SDS011;16667;-33.884;151.182;2022-08-21T03:06:07;3.97;;;1.10;;
29764;SDS011;16667;-33.884;151.182;2022-08-21T03:08:41;3.20;;;0.88;;
29764;SDS011;16667;-33.884;151.182;2022-08-21T03:11:13;4.80;;;0.90;;
29764;SDS011;16667;-33.884;151.182;2022-08-21T03:13:45;4.68;;;1.00;;
29764;SDS011;16667;-33.884;151.182;2022-08-21T03:16:15;3.08;;;1.00;;
29764;SDS011;16667;-33.884;151.182;2022-08-21T03:18:47;3.20;;;1.00;;
29764;SDS011;16667;-33.884;151.182;2022-08-21T03:21:17;3.92;;;0.80;;
29764;SDS011;16667;-33.884;151.182;2022-08-21T03:23:50;6.25;;;1.00;;
29764;SDS011;16667;-33.884;151.182;2022-08-21T03:26:21;2.63;;;0.73;;
29764;SDS011;16667;-33.884;151.182;2022-08-21T03:28:52;6.03;;;0.95;;
29764;SDS011;16667;-33.884;151.182;2022-08-21T03:31:23;3.90;;;0.90;;
29764;SDS011;16667;-33.884;151.182;2022-08-21T03:33:56;1.98;;;0.65;;
29764;SDS011;16667;-33.884;151.182;2022-08-21T03:36:27;4.28;;;0.77;;
29764;SDS011;16667;-33.884;151.182;2022-08-21T03:39:00;4.78;;;1.35;;
29764;SDS011;16667;-33.884;151.182;2022-08-21T03:41:31;4.85;;;1.20;;
29764;SDS011;16667;-33.884;151.182;2022-08-21T03:44:02;3.15;;;0.70;;
29764;SDS011;16667;-33.884;151.182;2022-08-21T03:46:34;3.45;;;1.05;;
29764;SDS011;16667;-33.884;151.182;2022-08-21T03:49:06;2.70;;;0.68;;
29764;SDS011;16667;-33.884;151.182;2022-08-21T03:51:37;2.60;;;0.77;;
29764;SDS011;16667;-33.884;151.182;2022-08-21T03:54:09;3.40;;;0.80;;
29764;SDS011;16667;-33.884;151.182;2022-08-21T03:56:43;3.63;;;0.80;;
29764;SDS011;16667;-33.884;151.182;2022-08-21T03:59:14;1.75;;;0.60;;
29764;SDS011;16667;-33.884;151.182;2022-08-21T04:01:51;2.17;;;0.60;;
29764;SDS011;16667;-33.884;151.182;2022-08-21T04:04:22;2.40;;;0.80;;
29764;SDS011;16667;-33.884;151.182;2022-08-21T04:06:53;2.00;;;0.67;;
29764;SDS011;16667;-33.884;151.182;2022-08-21T04:09:27;4.50;;;1.10;;
29764;SDS011;16667;-33.884;151.182;2022-08-21T04:11:58;2.60;;;0.90;;
29764;SDS011;16667;-33.884;151.182;2022-08-21T04:14:29;4.55;;;0.70;;
29764;SDS011;16667;-33.884;151.182;2022-08-21T04:17:00;3.45;;;1.00;;
29764;SDS011;16667;-33.884;151.182;2022-08-21T04:19:31;3.08;;;0.90;;
29764;SDS011;16667;-33.884;151.182;2022-08-21T04:22:04;3.42;;;1.00;;
29764;SDS011;16667;-33.884;151.182;2022-08-21T04:24:37;2.23;;;0.80;;
29764;SDS011;16667;-33.884;151.182;2022-08-21T04:27:08;1.92;;;0.63;;
29764;SDS011;16667;-33.884;151.182;2022-08-21T04:29:41;3.65;;;1.20;;
29764;SDS011;16667;-33.884;151.182;2022-08-21T04:32:12;1.58;;;0.70;;
29764;SDS011;16667;-33.884;151.182;2022-08-21T04:34:49;3.88;;;0.70;;
29764;SDS011;16667;-33.884;151.182;2022-08-21T04:37:25;2.05;;;0.70;;
29764;SDS011;16667;-33.884;151.182;2022-08-21T04:39:58;1.20;;;0.47;;
29764;SDS011;16667;-33.884;151.182;2022-08-21T04:42:29;1.02;;;0.50;;
29764;SDS011;16667;-33.884;151.182;2022-08-21T04:44:59;1.05;;;0.50;;
29764;SDS011;16667;-33.884;151.182;2022-08-21T04:47:30;1.70;;;0.50;;
29764;SDS011;16667;-33.884;151.182;2022-08-21T04:50:01;3.92;;;1.10;;
29764;SDS011;16667;-33.884;151.182;2022-08-21T04:52:32;4.72;;;1.20;;
29764;SDS011;16667;-33.884;151.182;2022-08-21T04:55:06;7.57;;;1.45;;
29764;SDS011;16667;-33.884;151.182;2022-08-21T04:57:36;5.60;;;1.30;;
29764;SDS011;16667;-33.884;151.182;2022-08-21T05:00:08;5.50;;;1.20;;
29764;SDS011;16667;-33.884;151.182;2022-08-21T05:02:40;4.28;;;1.20;;
29764;SDS011;16667;-33.884;151.182;2022-08-21T05:05:13;5.47;;;1.60;;
29764;SDS011;16667;-33.884;151.182;2022-08-21T05:07:44;8.15;;;1.27;;
29764;SDS011;16667;-33.884;151.182;2022-08-21T05:10:18;5.90;;;1.20;;
29764;SDS011;16667;-33.884;151.182;2022-08-21T05:12:49;6.10;;;1.30;;
29764;SDS011;16667;-33.884;151.182;2022-08-21T05:15:20;5.88;;;1.60;;
29764;SDS011;16667;-33.884;151.182;2022-08-21T05:17:51;6.60;;;1.35;;
29764;SDS011;16667;-33.884;151.182;2022-08-21T05:20:22;6.65;;;1.38;;
29764;SDS011;16667;-33.884;151.182;2022-08-21T05:22:53;3.60;;;1.17;;
29764;SDS011;16667;-33.884;151.182;2022-08-21T05:25:26;6.35;;;1.27;;
29764;SDS011;16667;-33.884;151.182;2022-08-21T05:27:57;4.85;;;1.25;;
29764;SDS011;16667;-33.884;151.182;2022-08-21T05:30:28;6.43;;;1.35;;
29764;SDS011;16667;-33.884;151.182;2022-08-21T05:32:59;4.30;;;1.20;;
29764;SDS011;16667;-33.884;151.182;2022-08-21T05:35:30;11.93;;;1.50;;
29764;SDS011;16667;-33.884;151.182;2022-08-21T05:38:01;5.77;;;1.50;;
29764;SDS011;16667;-33.884;151.182;2022-08-21T05:40:35;7.70;;;1.77;;
29764;SDS011;16667;-33.884;151.182;2022-08-21T05:43:05;5.65;;;1.35;;
29764;SDS011;16667;-33.884;151.182;2022-08-21T05:45:36;4.70;;;1.20;;
29764;SDS011;16667;-33.884;151.182;2022-08-21T05:48:07;5.70;;;1.10;;
29764;SDS011;16667;-33.884;151.182;2022-08-21T05:50:43;6.97;;;1.50;;
29764;SDS011;16667;-33.884;151.182;2022-08-21T05:53:17;5.15;;;1.15;;
29764;SDS011;16667;-33.884;151.182;2022-08-21T05:55:51;7.38;;;1.38;;
29764;SDS011;16667;-33.884;151.182;2022-08-21T05:58:22;3.10;;;0.90;;
29764;SDS011;16667;-33.884;151.182;2022-08-21T06:00:53;3.35;;;1.02;;
29764;SDS011;16667;-33.884;151.182;2022-08-21T06:03:25;5.18;;;1.17;;
29764;SDS011;16667;-33.884;151.182;2022-08-21T06:05:57;6.13;;;1.40;;
29764;SDS011;16667;-33.884;151.182;2022-08-21T06:08:27;7.43;;;1.55;;
29764;SDS011;16667;-33.884;151.182;2022-08-21T06:11:00;7.63;;;1.90;;
29764;SDS011;16667;-33.884;151.182;2022-08-21T06:13:32;4.35;;;1.20;;
29764;SDS011;16667;-33.884;151.182;2022-08-21T06:16:04;5.13;;;1.10;;
29764;SDS011;16667;-33.884;151.182;2022-08-21T06:18:39;7.60;;;1.30;;
29764;SDS011;16667;-33.884;151.182;2022-08-21T06:21:11;8.88;;;1.20;;
29764;SDS011;16667;-33.884;151.182;2022-08-21T06:23:42;7.15;;;1.90;;
29764;SDS011;16667;-33.884;151.182;2022-08-21T06:26:15;8.55;;;1.60;;
29764;SDS011;16667;-33.884;151.182;2022-08-21T06:28:46;5.15;;;1.02;;
29764;SDS011;16667;-33.884;151.182;2022-08-21T06:31:18;8.48;;;1.25;;
29764;SDS011;16667;-33.884;151.182;2022-08-21T06:33:50;5.85;;;1.50;;
29764;SDS011;16667;-33.884;151.182;2022-08-21T06:36:21;7.78;;;2.85;;
29764;SDS011;16667;-33.884;151.182;2022-08-21T06:38:52;5.50;;;1.70;;
29764;SDS011;16667;-33.884;151.182;2022-08-21T06:41:24;7.53;;;1.80;;
29764;SDS011;16667;-33.884;151.182;2022-08-21T06:43:56;7.68;;;1.60;;
29764;SDS011;16667;-33.884;151.182;2022-08-21T06:46:28;6.10;;;1.50;;
29764;SDS011;16667;-33.884;151.182;2022-08-21T06:49:00;6.28;;;1.45;;
29764;SDS011;16667;-33.884;151.182;2022-08-21T06:51:31;5.93;;;1.60;;
29764;SDS011;16667;-33.884;151.182;2022-08-21T06:54:02;6.85;;;1.33;;
29764;SDS011;16667;-33.884;151.182;2022-08-21T06:56:35;8.50;;;1.92;;
29764;SDS011;16667;-33.884;151.182;2022-08-21T06:59:06;7.40;;;1.90;;
29764;SDS011;16667;-33.884;151.182;2022-08-21T07:01:37;5.28;;;1.67;;
29764;SDS011;16667;-33.884;151.182;2022-08-21T07:04:10;6.65;;;1.42;;
29764;SDS011;16667;-33.884;151.182;2022-08-21T07:06:40;4.80;;;1.40;;
29764;SDS011;16667;-33.884;151.182;2022-08-21T07:09:11;5.47;;;1.70;;
29764;SDS011;16667;-33.884;151.182;2022-08-21T07:11:44;4.75;;;1.27;;
29764;SDS011;16667;-33.884;151.182;2022-08-21T07:14:18;7.47;;;1.60;;
29764;SDS011;16667;-33.884;151.182;2022-08-21T07:16:49;7.22;;;1.63;;
29764;SDS011;16667;-33.884;151.182;2022-08-21T07:19:20;7.22;;;1.50;;
29764;SDS011;16667;-33.884;151.182;2022-08-21T07:21:51;10.68;;;1.77;;
29764;SDS011;16667;-33.884;151.182;2022-08-21T07:24:26;6.80;;;1.50;;
29764;SDS011;16667;-33.884;151.182;2022-08-21T07:26:59;7.53;;;1.65;;
29764;SDS011;16667;-33.884;151.182;2022-08-21T07:29:31;10.35;;;2.10;;
29764;SDS011;16667;-33.884;151.182;2022-08-21T07:32:02;6.85;;;1.45;;
29764;SDS011;16667;-33.884;151.182;2022-08-21T07:34:33;5.07;;;1.48;;
29764;SDS011;16667;-33.884;151.182;2022-08-21T07:37:04;6.80;;;1.85;;
29764;SDS011;16667;-33.884;151.182;2022-08-21T07:39:34;12.57;;;3.33;;
29764;SDS011;16667;-33.884;151.182;2022-08-21T07:42:07;6.32;;;2.17;;
29764;SDS011;16667;-33.884;151.182;2022-08-21T07:44:38;6.20;;;1.93;;
29764;SDS011;16667;-33.884;151.182;2022-08-21T07:47:09;5.13;;;1.20;;
29764;SDS011;16667;-33.884;151.182;2022-08-21T07:49:40;5.22;;;1.60;;
29764;SDS011;16667;-33.884;151.182;2022-08-21T07:52:11;5.73;;;1.50;;
29764;SDS011;16667;-33.884;151.182;2022-08-21T07:54:42;4.82;;;1.77;;
29764;SDS011;16667;-33.884;151.182;2022-08-21T07:57:14;5.15;;;1.90;;
29764;SDS011;16667;-33.884;151.182;2022-08-21T07:59:45;4.97;;;1.52;;
29764;SDS011;16667;-33.884;151.182;2022-08-21T08:02:21;7.47;;;2.22;;
29764;SDS011;16667;-33.884;151.182;2022-08-21T08:04:53;7.35;;;1.90;;
29764;SDS011;16667;-33.884;151.182;2022-08-21T08:07:27;7.43;;;2.22;;
29764;SDS011;16667;-33.884;151.182;2022-08-21T08:10:00;7.90;;;2.05;;
29764;SDS011;16667;-33.884;151.182;2022-08-21T08:12:33;11.77;;;3.40;;
29764;SDS011;16667;-33.884;151.182;2022-08-21T08:15:05;15.10;;;9.77;;
29764;SDS011;16667;-33.884;151.182;2022-08-21T08:17:38;15.52;;;8.40;;
29764;SDS011;16667;-33.884;151.182;2022-08-21T08:20:09;16.33;;;8.02;;
29764;SDS011;16667;-33.884;151.182;2022-08-21T08:22:41;14.13;;;7.43;;
29764;SDS011;16667;-33.884;151.182;2022-08-21T08:25:13;8.60;;;5.10;;
29764;SDS011;16667;-33.884;151.182;2022-08-21T08:27:46;13.52;;;4.47;;
29764;SDS011;16667;-33.884;151.182;2022-08-21T08:30:18;9.85;;;4.25;;
29764;SDS011;16667;-33.884;151.182;2022-08-21T08:32:50;8.27;;;2.77;;
29764;SDS011;16667;-33.884;151.182;2022-08-21T08:35:20;6.13;;;2.28;;
29764;SDS011;16667;-33.884;151.182;2022-08-21T08:37:52;6.88;;;1.80;;
29764;SDS011;16667;-33.884;151.182;2022-08-21T08:40:24;9.85;;;1.83;;
29764;SDS011;16667;-33.884;151.182;2022-08-21T08:43:04;9.35;;;2.08;;
29764;SDS011;16667;-33.884;151.182;2022-08-21T08:45:36;8.15;;;1.92;;
29764;SDS011;16667;-33.884;151.182;2022-08-21T08:48:10;8.25;;;2.53;;
29764;SDS011;16667;-33.884;151.182;2022-08-21T08:50:47;12.40;;;2.25;;
29764;SDS011;16667;-33.884;151.182;2022-08-21T08:53:20;8.68;;;2.42;;
29764;SDS011;16667;-33.884;151.182;2022-08-21T08:55:55;8.50;;;2.03;;
29764;SDS011;16667;-33.884;151.182;2022-08-21T08:58:28;7.57;;;1.95;;
29764;SDS011;16667;-33.884;151.182;2022-08-21T09:01:00;7.65;;;2.20;;
29764;SDS011;16667;-33.884;151.182;2022-08-21T09:03:34;6.22;;;2.20;;
29764;SDS011;16667;-33.884;151.182;2022-08-21T09:06:09;9.93;;;2.40;;
29764;SDS011;16667;-33.884;151.182;2022-08-21T09:08:53;7.70;;;2.30;;
29764;SDS011;16667;-33.884;151.182;2022-08-21T09:11:32;7.88;;;2.10;;
29764;SDS011;16667;-33.884;151.182;2022-08-21T09:14:09;8.88;;;2.10;;
29764;SDS011;16667;-33.884;151.182;2022-08-21T09:16:50;8.52;;;1.95;;
29764;SDS011;16667;-33.884;151.182;2022-08-21T09:19:36;7.22;;;2.13;;
29764;SDS011;16667;-33.884;151.182;2022-08-21T09:22:23;6.35;;;1.80;;
29764;SDS011;16667;-33.884;151.182;2022-08-21T09:25:05;7.50;;;2.10;;
29764;SDS011;16667;-33.884;151.182;2022-08-21T09:27:41;7.03;;;1.75;;
29764;SDS011;16667;-33.884;151.182;2022-08-21T09:30:17;9.07;;;1.60;;
29764;SDS011;16667;-33.884;151.182;2022-08-21T09:32:53;5.57;;;1.53;;
29764;SDS011;16667;-33.884;151.182;2022-08-21T09:35:24;5.07;;;1.80;;
29764;SDS011;16667;-33.884;151.182;2022-08-21T09:37:55;9.20;;;1.73;;
29764;SDS011;16667;-33.884;151.182;2022-08-21T09:40:31;9.15;;;1.80;;
29764;SDS011;16667;-33.884;151.182;2022-08-21T09:43:07;6.22;;;1.50;;
29764;SDS011;16667;-33.884;151.182;2022-08-21T09:46:01;6.90;;;1.70;;
29764;SDS011;16667;-33.884;151.182;2022-08-21T09:48:44;7.00;;;1.33;;
29764;SDS011;16667;-33.884;151.182;2022-08-21T09:51:16;6.57;;;1.70;;
29764;SDS011;16667;-33.884;151.182;2022-08-21T09:53:49;6.40;;;1.40;;
29764;SDS011;16667;-33.884;151.182;2022-08-21T09:56:28;5.18;;;1.67;;
29764;SDS011;16667;-33.884;151.182;2022-08-21T09:59:19;5.60;;;1.50;;
29764;SDS011;16667;-33.884;151.182;2022-08-21T10:01:59;10.83;;;2.17;;
29764;SDS011;16667;-33.884;151.182;2022-08-21T10:04:31;7.65;;;1.73;;
29764;SDS011;16667;-33.884;151.182;2022-08-21T10:07:06;5.53;;;1.30;;
29764;SDS011;16667;-33.884;151.182;2022-08-21T10:09:38;8.48;;;1.60;;
29764;SDS011;16667;-33.884;151.182;2022-08-21T10:12:11;6.78;;;1.52;;
29764;SDS011;16667;-33.884;151.182;2022-08-21T10:14:50;7.10;;;1.63;;
29764;SDS011;16667;-33.884;151.182;2022-08-21T10:17:32;9.97;;;1.60;;
29764;SDS011;16667;-33.884;151.182;2022-08-21T10:20:10;9.10;;;1.83;;
29764;SDS011;16667;-33.884;151.182;2022-08-21T10:22:46;7.27;;;1.57;;
29764;SDS011;16667;-33.884;151.182;2022-08-21T10:25:30;10.63;;;2.33;;
29764;SDS011;16667;-33.884;151.182;2022-08-21T10:28:05;7.78;;;1.67;;
29764;SDS011;16667;-33.884;151.182;2022-08-21T10:30:44;7.30;;;1.90;;
29764;SDS011;16667;-33.884;151.182;2022-08-21T10:33:23;4.68;;;1.30;;
29764;SDS011;16667;-33.884;151.182;2022-08-21T10:36:03;5.03;;;1.60;;
29764;SDS011;16667;-33.884;151.182;2022-08-21T10:41:44;6.25;;;1.50;;
29764;SDS011;16667;-33.884;151.182;2022-08-21T10:44:33;6.10;;;1.40;;
29764;SDS011;16667;-33.884;151.182;2022-08-21T10:47:12;4.40;;;1.40;;
29764;SDS011;16667;-33.884;151.182;2022-08-21T10:49:51;7.75;;;1.45;;
29764;SDS011;16667;-33.884;151.182;2022-08-21T10:52:31;7.45;;;1.40;;
29764;SDS011;16667;-33.884;151.182;2022-08-21T10:55:15;5.75;;;1.60;;
29764;SDS011;16667;-33.884;151.182;2022-08-21T10:57:49;4.57;;;1.42;;
29764;SDS011;16667;-33.884;151.182;2022-08-21T11:00:24;8.10;;;1.50;;
29764;SDS011;16667;-33.884;151.182;2022-08-21T11:03:01;6.22;;;1.25;;
29764;SDS011;16667;-33.884;151.182;2022-08-21T11:05:40;5.47;;;1.60;;
29764;SDS011;16667;-33.884;151.182;2022-08-21T11:08:17;5.43;;;1.50;;
29764;SDS011;16667;-33.884;151.182;2022-08-21T11:10:52;6.82;;;1.50;;
29764;SDS011;16667;-33.884;151.182;2022-08-21T11:13:27;7.95;;;1.70;;
29764;SDS011;16667;-33.884;151.182;2022-08-21T11:16:06;5.05;;;1.23;;
29764;SDS011;16667;-33.884;151.182;2022-08-21T11:18:43;8.40;;;1.80;;
29764;SDS011;16667;-33.884;151.182;2022-08-21T11:21:34;6.82;;;1.70;;
29764;SDS011;16667;-33.884;151.182;2022-08-21T11:24:15;5.97;;;1.30;;
29764;SDS011;16667;-33.884;151.182;2022-08-21T11:26:54;5.65;;;1.63;;
29764;SDS011;16667;-33.884;151.182;2022-08-21T11:29:31;7.07;;;1.98;;
29764;SDS011;16667;-33.884;151.182;2022-08-21T11:32:20;4.97;;;1.80;;
29764;SDS011;16667;-33.884;151.182;2022-08-21T11:35:17;4.97;;;1.30;;
29764;SDS011;16667;-33.884;151.182;2022-08-21T11:37:59;5.30;;;1.57;;
29764;SDS011;16667;-33.884;151.182;2022-08-21T11:40:49;4.38;;;1.40;;
29764;SDS011;16667;-33.884;151.182;2022-08-21T11:43:34;16.13;;;4.30;;
29764;SDS011;16667;-33.884;151.182;2022-08-21T11:46:20;9.07;;;2.47;;
29764;SDS011;16667;-33.884;151.182;2022-08-21T11:49:02;6.15;;;2.05;;
29764;SDS011;16667;-33.884;151.182;2022-08-21T11:51:46;11.20;;;2.28;;
29764;SDS011;16667;-33.884;151.182;2022-08-21T11:54:39;7.68;;;1.60;;
29764;SDS011;16667;-33.884;151.182;2022-08-21T11:57:14;10.07;;;1.65;;
29764;SDS011;16667;-33.884;151.182;2022-08-21T11:59:49;6.60;;;1.30;;
29764;SDS011;16667;-33.884;151.182;2022-08-21T12:02:28;8.37;;;1.40;;
29764;SDS011;16667;-33.884;151.182;2022-08-21T12:05:03;11.85;;;1.42;;
29764;SDS011;16667;-33.884;151.182;2022-08-21T12:07:37;8.18;;;1.50;;
29764;SDS011;16667;-33.884;151.182;2022-08-21T12:10:15;7.28;;;1.45;;
29764;SDS011;16667;-33.884;151.182;2022-08-21T12:12:48;7.50;;;1.63;;
29764;SDS011;16667;-33.884;151.182;2022-08-21T12:15:26;7.97;;;1.48;;
29764;SDS011;16667;-33.884;151.182;2022-08-21T12:17:58;9.70;;;1.70;;
29764;SDS011;16667;-33.884;151.182;2022-08-21T12:20:37;7.13;;;1.73;;
29764;SDS011;16667;-33.884;151.182;2022-08-21T12:23:16;5.82;;;1.40;;
29764;SDS011;16667;-33.884;151.182;2022-08-21T12:26:10;6.88;;;1.35;;
29764;SDS011;16667;-33.884;151.182;2022-08-21T12:31:54;7.53;;;1.60;;
29764;SDS011;16667;-33.884;151.182;2022-08-21T12:34:30;8.07;;;1.80;;
29764;SDS011;16667;-33.884;151.182;2022-08-21T12:37:04;7.13;;;1.95;;
29764;SDS011;16667;-33.884;151.182;2022-08-21T12:39:43;12.20;;;3.40;;
29764;SDS011;16667;-33.884;151.182;2022-08-21T12:42:19;14.63;;;4.90;;
29764;SDS011;16667;-33.884;151.182;2022-08-21T12:44:53;8.15;;;2.80;;
29764;SDS011;16667;-33.884;151.182;2022-08-21T12:47:27;8.68;;;2.85;;
29764;SDS011;16667;-33.884;151.182;2022-08-21T12:50:04;5.35;;;1.70;;
29764;SDS011;16667;-33.884;151.182;2022-08-21T12:52:40;11.05;;;1.92;;
29764;SDS011;16667;-33.884;151.182;2022-08-21T12:55:14;7.00;;;1.90;;
29764;SDS011;16667;-33.884;151.182;2022-08-21T12:58:00;5.53;;;1.60;;
29764;SDS011;16667;-33.884;151.182;2022-08-21T13:00:33;7.68;;;1.60;;
29764;SDS011;16667;-33.884;151.182;2022-08-21T13:03:04;8.18;;;2.00;;
29764;SDS011;16667;-33.884;151.182;2022-08-21T13:05:37;7.93;;;1.88;;
29764;SDS011;16667;-33.884;151.182;2022-08-21T13:08:09;7.03;;;1.60;;
29764;SDS011;16667;-33.884;151.182;2022-08-21T13:10:42;9.75;;;1.70;;
29764;SDS011;16667;-33.884;151.182;2022-08-21T13:13:20;5.30;;;1.50;;
29764;SDS011;16667;-33.884;151.182;2022-08-21T13:15:57;6.10;;;1.48;;
29764;SDS011;16667;-33.884;151.182;2022-08-21T13:18:29;6.37;;;1.70;;
29764;SDS011;16667;-33.884;151.182;2022-08-21T13:21:05;5.80;;;1.60;;
29764;SDS011;16667;-33.884;151.182;2022-08-21T13:23:40;5.82;;;1.73;;
29764;SDS011;16667;-33.884;151.182;2022-08-21T13:26:14;9.07;;;1.98;;
29764;SDS011;16667;-33.884;151.182;2022-08-21T13:28:49;11.73;;;1.98;;
29764;SDS011;16667;-33.884;151.182;2022-08-21T13:31:22;10.27;;;1.70;;
29764;SDS011;16667;-33.884;151.182;2022-08-21T13:33:56;9.00;;;2.10;;
29764;SDS011;16667;-33.884;151.182;2022-08-21T13:36:29;5.55;;;1.83;;
29764;SDS011;16667;-33.884;151.182;2022-08-21T13:39:03;11.33;;;4.33;;
29764;SDS011;16667;-33.884;151.182;2022-08-21T13:41:36;7.40;;;2.53;;
29764;SDS011;16667;-33.884;151.182;2022-08-21T13:44:16;7.90;;;2.28;;
29764;SDS011;16667;-33.884;151.182;2022-08-21T13:46:52;8.20;;;2.40;;
29764;SDS011;16667;-33.884;151.182;2022-08-21T13:49:29;9.18;;;2.63;;
29764;SDS011;16667;-33.884;151.182;2022-08-21T13:52:03;5.78;;;2.45;;
29764;SDS011;16667;-33.884;151.182;2022-08-21T13:54:43;9.43;;;2.30;;
29764;SDS011;16667;-33.884;151.182;2022-08-21T13:57:24;8.77;;;2.60;;
29764;SDS011;16667;-33.884;151.182;2022-08-21T14:02:45;9.13;;;3.03;;
29764;SDS011;16667;-33.884;151.182;2022-08-21T14:05:20;9.77;;;3.10;;
29764;SDS011;16667;-33.884;151.182;2022-08-21T14:07:56;8.82;;;3.00;;
29764;SDS011;16667;-33.884;151.182;2022-08-21T14:10:34;9.45;;;2.95;;
29764;SDS011;16667;-33.884;151.182;2022-08-21T14:13:20;9.23;;;2.38;;
29764;SDS011;16667;-33.884;151.182;2022-08-21T14:16:10;11.52;;;2.60;;
29764;SDS011;16667;-33.884;151.182;2022-08-21T14:18:47;6.05;;;2.50;;
29764;SDS011;16667;-33.884;151.182;2022-08-21T14:21:24;8.17;;;3.03;;
29764;SDS011;16667;-33.884;151.182;2022-08-21T14:24:02;9.25;;;3.00;;
29764;SDS011;16667;-33.884;151.182;2022-08-21T14:26:36;8.85;;;2.83;;
29764;SDS011;16667;-33.884;151.182;2022-08-21T14:29:13;8.32;;;2.63;;
29764;SDS011;16667;-33.884;151.182;2022-08-21T14:31:51;9.15;;;2.75;;
29764;SDS011;16667;-33.884;151.182;2022-08-21T14:34:25;8.88;;;2.55;;
29764;SDS011;16667;-33.884;151.182;2022-08-21T14:36:57;7.13;;;2.92;;
29764;SDS011;16667;-33.884;151.182;2022-08-21T14:39:28;5.57;;;2.30;;
29764;SDS011;16667;-33.884;151.182;2022-08-21T14:41:59;8.38;;;2.95;;
29764;SDS011;16667;-33.884;151.182;2022-08-21T14:44:30;8.70;;;2.53;;
29764;SDS011;16667;-33.884;151.182;2022-08-21T14:47:04;11.13;;;2.78;;
29764;SDS011;16667;-33.884;151.182;2022-08-21T14:49:36;10.10;;;2.53;;
29764;SDS011;16667;-33.884;151.182;2022-08-21T14:52:06;7.82;;;2.40;;
29764;SDS011;16667;-33.884;151.182;2022-08-21T14:54:37;9.90;;;2.50;;
29764;SDS011;16667;-33.884;151.182;2022-08-21T14:57:08;8.75;;;2.50;;